Time;durP1;ratioP1;P1;durP2;ratioP2;P2;SDS_P1;SDS_P2;PMS_P1;PMS_P2;Temp;Humidity;BMP_temperature;BMP_pressure;BME280_temperature;BME280_humidity;BME280_pressure;Samples;Min_cycle;Max_cycle;Signal;HPM_P1;HPM_P2
2021/03/29 00:02:03;;;;;;;11.38;6.68;;;13.40;96.70;;;;;;5069812;28;20055;-78
2021/03/29 00:04:30;;;;;;;9.18;6.00;;;13.40;96.70;;;;;;5070892;28;20458;-78
2021/03/29 00:07:01;;;;;;;8.70;6.18;;;13.40;96.70;;;;;;5069745;28;20048;-77
2021/03/29 00:09:31;;;;;;;12.85;5.53;;;13.30;96.70;;;;;;5074255;28;20076;-78
2021/03/29 00:12:00;;;;;;;10.55;6.25;;;13.30;96.70;;;;;;5057574;28;20457;-78
2021/03/29 00:14:29;;;;;;;9.43;6.00;;;13.30;96.70;;;;;;5071695;28;20052;-78
2021/03/29 00:16:57;;;;;;;9.70;6.22;;;13.30;96.70;;;;;;5076430;28;20090;-78
2021/03/29 00:19:26;;;;;;;11.13;5.90;;;13.30;96.70;;;;;;5075279;28;20458;-77
2021/03/29 00:21:54;;;;;;;10.35;6.53;;;13.20;96.70;;;;;;5074772;28;20269;-78
2021/03/29 00:24:22;;;;;;;13.63;6.95;;;13.20;96.70;;;;;;5074319;28;20147;-78
2021/03/29 00:26:50;;;;;;;11.23;5.70;;;13.10;96.70;;;;;;5076846;28;20032;-78
2021/03/29 00:29:18;;;;;;;11.77;6.65;;;13.10;96.70;;;;;;5072147;28;20134;-78
2021/03/29 00:31:46;;;;;;;12.27;7.05;;;13.10;96.70;;;;;;5068256;28;20039;-78
2021/03/29 00:34:15;;;;;;;12.25;7.40;;;13.00;96.70;;;;;;5073671;28;20085;-78
2021/03/29 00:36:42;;;;;;;16.98;7.55;;;13.00;96.70;;;;;;5081834;28;20610;-78
2021/03/29 00:39:11;;;;;;;11.13;6.63;;;13.00;96.70;;;;;;5070535;28;20074;-78
2021/03/29 00:41:39;;;;;;;12.23;6.68;;;13.00;96.70;;;;;;5081119;28;20048;-77
2021/03/29 00:44:07;;;;;;;10.00;6.68;;;13.00;96.70;;;;;;5063486;28;20883;-78
2021/03/29 00:46:38;;;;;;;14.50;6.80;;;13.10;96.70;;;;;;5092698;28;20042;-78
2021/03/29 00:49:05;;;;;;;11.82;6.60;;;13.10;96.70;;;;;;5076787;28;20042;-78
2021/03/29 00:51:35;;;;;;;14.27;6.45;;;13.10;96.70;;;;;;5079979;28;20040;-77
2021/03/29 00:54:06;;;;;;;13.05;6.50;;;13.10;96.70;;;;;;5077042;28;20052;-77
2021/03/29 00:56:35;;;;;;;11.40;7.15;;;13.10;96.70;;;;;;5061466;28;20044;-78
2021/03/29 00:59:04;;;;;;;15.85;7.20;;;13.20;96.70;;;;;;5082666;28;20070;-78
2021/03/29 01:01:38;;;;;;;11.57;6.13;;;13.20;96.70;;;;;;5056174;28;20071;-78
2021/03/29 01:04:07;;;;;;;16.60;7.38;;;13.20;96.70;;;;;;5077188;28;20040;-77
2021/03/29 01:06:37;;;;;;;14.40;7.40;;;13.20;96.70;;;;;;5076106;28;20047;-78
2021/03/29 01:09:08;;;;;;;10.93;6.03;;;13.20;96.70;;;;;;5061557;28;20063;-78
2021/03/29 01:11:41;;;;;;;9.35;5.35;;;13.20;96.70;;;;;;5080236;28;20144;-78
2021/03/29 01:14:11;;;;;;;8.63;5.50;;;13.20;96.70;;;;;;5080296;28;20079;-78
2021/03/29 01:16:42;;;;;;;10.45;6.18;;;13.20;96.70;;;;;;5078667;28;20386;-77
2021/03/29 01:19:15;;;;;;;10.95;6.40;;;13.20;96.70;;;;;;5074331;28;20101;-78
2021/03/29 01:21:57;;;;;;;11.85;6.35;;;13.30;96.70;;;;;;5072349;28;20080;-78
2021/03/29 01:24:33;;;;;;;18.05;8.05;;;13.40;96.70;;;;;;5077325;28;20048;-78
2021/03/29 01:27:02;;;;;;;28.33;10.07;;;13.20;96.70;;;;;;5073786;28;20124;-78
2021/03/29 01:29:31;;;;;;;21.02;9.05;;;13.10;96.70;;;;;;5077075;28;20043;-78
2021/03/29 01:32:00;;;;;;;28.38;10.05;;;12.80;96.70;;;;;;5079576;28;20044;-78
2021/03/29 01:34:30;;;;;;;23.40;9.57;;;12.90;96.70;;;;;;5080779;28;20703;-78
2021/03/29 01:36:59;;;;;;;30.10;10.88;;;12.90;96.70;;;;;;5066079;28;20039;-77
2021/03/29 01:39:28;;;;;;;26.27;10.55;;;12.90;96.70;;;;;;5070879;28;20426;-77
2021/03/29 01:41:57;;;;;;;30.85;12.57;;;12.90;96.70;;;;;;5069979;28;20460;-78
2021/03/29 01:44:26;;;;;;;23.25;10.27;;;13.00;96.70;;;;;;5077279;28;20037;-78
2021/03/29 01:46:55;;;;;;;23.17;10.57;;;13.00;96.70;;;;;;5078984;28;20501;-77
2021/03/29 01:49:23;;;;;;;26.33;11.20;;;13.00;96.70;;;;;;5073835;28;20051;-78
2021/03/29 01:51:51;;;;;;;28.25;11.02;;;13.00;96.70;;;;;;5075282;28;20127;-77
2021/03/29 01:54:19;;;;;;;29.33;10.38;;;12.90;96.70;;;;;;5069459;28;20169;-78
2021/03/29 01:56:46;;;;;;;26.00;10.77;;;12.90;96.70;;;;;;5072311;28;20125;-77
2021/03/29 01:59:14;;;;;;;27.42;10.18;;;12.90;96.70;;;;;;5075602;28;20294;-78
2021/03/29 02:01:42;;;;;;;27.95;9.65;;;12.90;96.70;;;;;;5081356;28;20126;-77
2021/03/29 02:04:10;;;;;;;23.50;9.43;;;12.90;96.70;;;;;;5068846;28;20064;-76
2021/03/29 02:06:38;;;;;;;15.20;8.38;;;12.90;96.70;;;;;;5072622;28;20093;-77
2021/03/29 02:09:07;;;;;;;15.90;8.50;;;12.90;96.70;;;;;;5062056;28;20054;-78
2021/03/29 02:11:34;;;;;;;16.35;6.90;;;12.90;96.70;;;;;;5076149;28;20052;-77
2021/03/29 02:14:04;;;;;;;16.42;7.32;;;12.80;96.70;;;;;;5073714;28;20090;-78
2021/03/29 02:16:32;;;;;;;15.38;6.43;;;12.80;96.70;;;;;;5057921;28;20097;-77
2021/03/29 02:19:02;;;;;;;14.38;6.00;;;12.80;96.70;;;;;;5058568;28;20438;-77
2021/03/29 02:21:33;;;;;;;11.45;6.60;;;12.80;96.70;;;;;;5058417;28;20052;-77
2021/03/29 02:24:01;;;;;;;15.88;6.88;;;12.90;96.70;;;;;;5072693;28;20051;-77
2021/03/29 02:26:31;;;;;;;13.70;7.30;;;12.80;96.70;;;;;;5078030;28;20061;-77
2021/03/29 02:28:59;;;;;;;15.90;7.07;;;12.80;96.70;;;;;;5077880;28;20044;-77
2021/03/29 02:31:27;;;;;;;17.85;7.75;;;12.90;96.70;;;;;;5079440;28;20038;-77
2021/03/29 02:33:58;;;;;;;15.05;6.45;;;12.90;96.70;;;;;;5076436;28;20043;-78
2021/03/29 02:36:27;;;;;;;14.60;7.40;;;12.80;96.70;;;;;;5074319;28;20036;-77
2021/03/29 02:38:57;;;;;;;13.77;7.20;;;12.80;96.70;;;;;;5078274;28;20036;-77
2021/03/29 02:41:27;;;;;;;13.00;7.18;;;12.80;96.70;;;;;;5079233;28;20040;-77
2021/03/29 02:43:55;;;;;;;13.23;6.75;;;12.80;96.70;;;;;;5078172;28;20123;-77
2021/03/29 02:46:24;;;;;;;11.25;6.38;;;12.70;96.70;;;;;;5081401;28;20127;-76
2021/03/29 02:48:53;;;;;;;14.77;7.10;;;12.70;96.70;;;;;;5070823;28;20524;-77
2021/03/29 02:51:21;;;;;;;11.35;6.55;;;12.80;96.70;;;;;;5077757;28;20388;-77
2021/03/29 02:53:52;;;;;;;16.27;7.40;;;12.70;96.70;;;;;;5072391;28;20155;-76
2021/03/29 02:56:22;;;;;;;16.50;6.70;;;12.80;96.70;;;;;;5068346;28;20056;-76
2021/03/29 02:58:53;;;;;;;12.77;7.47;;;12.80;96.70;;;;;;5071053;28;20569;-77
2021/03/29 03:01:24;;;;;;;21.10;7.20;;;12.70;96.70;;;;;;5079303;28;20036;-77
2021/03/29 03:03:53;;;;;;;15.98;7.22;;;12.60;96.70;;;;;;5080449;28;20409;-77
2021/03/29 03:06:23;;;;;;;15.98;7.90;;;12.50;96.70;;;;;;5074199;28;20032;-77
2021/03/29 03:08:52;;;;;;;14.02;8.18;;;12.60;96.70;;;;;;5075197;28;20106;-77
2021/03/29 03:11:20;;;;;;;16.08;7.85;;;12.50;96.70;;;;;;5072730;28;20045;-77
2021/03/29 03:13:48;;;;;;;17.38;8.02;;;12.50;96.70;;;;;;5077232;28;20032;-77
2021/03/29 03:16:16;;;;;;;17.20;7.10;;;12.50;96.70;;;;;;5078391;28;20036;-77
2021/03/29 03:18:46;;;;;;;11.18;7.30;;;12.40;96.70;;;;;;5069752;28;20455;-77
2021/03/29 03:21:15;;;;;;;13.63;7.65;;;12.40;96.70;;;;;;5073334;28;20549;-76
2021/03/29 03:23:52;;;;;;;12.98;6.93;;;12.40;96.70;;;;;;5077562;28;20056;-77
2021/03/29 03:26:20;;;;;;;10.35;7.28;;;12.60;96.70;;;;;;5067259;28;20048;-77
2021/03/29 03:28:47;;;;;;;14.57;7.22;;;12.70;96.70;;;;;;5072544;28;20063;-77
2021/03/29 03:31:15;;;;;;;12.80;6.80;;;12.60;96.70;;;;;;5075659;28;20044;-77
2021/03/29 03:33:43;;;;;;;12.75;7.70;;;12.60;96.70;;;;;;5075779;28;20502;-76
2021/03/29 03:36:12;;;;;;;9.90;8.02;;;12.60;96.70;;;;;;5059132;28;20044;-77
2021/03/29 03:38:43;;;;;;;15.13;7.28;;;12.60;96.70;;;;;;5082808;28;20043;-77
2021/03/29 03:41:13;;;;;;;19.73;6.75;;;12.50;96.70;;;;;;5072388;28;20044;-77
2021/03/29 03:43:44;;;;;;;14.40;6.53;;;12.50;96.70;;;;;;5077852;28;20058;-79
2021/03/29 03:46:14;;;;;;;7.85;5.95;;;12.40;96.70;;;;;;5074298;28;20560;-77
2021/03/29 03:48:43;;;;;;;7.53;6.20;;;12.50;96.70;;;;;;5074287;28;20040;-80
2021/03/29 03:51:11;;;;;;;11.25;6.07;;;12.50;96.70;;;;;;5072030;28;20063;-79
2021/03/29 03:53:38;;;;;;;10.30;5.78;;;12.50;96.70;;;;;;5076180;28;20055;-78
2021/03/29 03:56:07;;;;;;;10.23;6.25;;;12.40;96.70;;;;;;5057296;28;20039;-79
2021/03/29 03:58:36;;;;;;;6.68;5.40;;;12.40;96.70;;;;;;5076530;28;20126;-78
2021/03/29 04:01:08;;;;;;;11.27;5.93;;;12.30;96.70;;;;;;5071836;28;20037;-78
2021/03/29 04:03:35;;;;;;;10.50;5.78;;;12.30;96.70;;;;;;5075115;28;20032;-78
2021/03/29 04:06:03;;;;;;;7.85;4.65;;;12.20;96.70;;;;;;5069434;28;20064;-78
2021/03/29 04:08:47;;;;;;;9.05;5.10;;;12.20;96.70;;;;;;5071828;28;20141;-78
2021/03/29 04:11:15;;;;;;;7.07;4.82;;;12.20;96.70;;;;;;5067245;28;20082;-78
2021/03/29 04:13:44;;;;;;;6.15;4.80;;;12.30;96.70;;;;;;5072757;28;20048;-78
2021/03/29 04:16:11;;;;;;;6.80;4.75;;;12.40;96.70;;;;;;5077925;28;20067;-78
2021/03/29 04:18:38;;;;;;;13.27;4.78;;;12.40;96.70;;;;;;5058331;28;20135;-78
2021/03/29 04:21:06;;;;;;;16.00;4.70;;;12.40;96.70;;;;;;5057674;28;20496;-78
2021/03/29 04:23:33;;;;;;;10.85;5.38;;;12.30;96.70;;;;;;5072061;28;20044;-78
2021/03/29 04:26:05;;;;;;;8.38;4.70;;;12.30;96.70;;;;;;5059644;28;20408;-78
2021/03/29 04:28:32;;;;;;;6.18;5.00;;;12.20;96.70;;;;;;5078333;28;20051;-78
2021/03/29 04:31:00;;;;;;;12.68;5.05;;;12.10;96.70;;;;;;5076395;28;20323;-78
2021/03/29 04:33:27;;;;;;;11.18;5.40;;;12.10;96.70;;;;;;5056918;28;20036;-78
2021/03/29 04:35:55;;;;;;;10.80;5.80;;;12.10;96.70;;;;;;5057036;28;20520;-78
2021/03/29 04:38:22;;;;;;;7.35;5.30;;;12.00;96.70;;;;;;5073749;28;20045;-78
2021/03/29 04:40:50;;;;;;;12.93;5.32;;;12.10;96.70;;;;;;5066889;28;20551;-78
2021/03/29 04:43:17;;;;;;;12.90;4.75;;;12.10;96.70;;;;;;5073689;28;20116;-78
2021/03/29 04:45:46;;;;;;;8.70;5.13;;;11.90;96.70;;;;;;5071422;28;20068;-78
2021/03/29 04:48:15;;;;;;;8.13;4.82;;;12.00;96.70;;;;;;5070160;28;20569;-78
2021/03/29 04:50:42;;;;;;;23.13;5.30;;;12.00;96.70;;;;;;5067461;28;20055;-79
2021/03/29 04:53:09;;;;;;;9.57;4.72;;;11.80;96.70;;;;;;5071626;28;20048;-78
2021/03/29 04:55:37;;;;;;;7.57;4.65;;;11.80;96.70;;;;;;5076767;28;20042;-78
2021/03/29 04:58:04;;;;;;;9.32;4.20;;;11.90;96.70;;;;;;5069979;28;20044;-78
2021/03/29 05:00:32;;;;;;;5.50;3.88;;;12.00;96.70;;;;;;5075464;28;20055;-78
2021/03/29 05:02:59;;;;;;;13.68;4.07;;;12.00;96.70;;;;;;5074976;28;20383;-79
2021/03/29 05:05:27;;;;;;;5.60;3.88;;;11.90;96.70;;;;;;5060529;28;20071;-78
2021/03/29 05:07:55;;;;;;;5.68;4.07;;;11.80;96.70;;;;;;5070961;28;20032;-78
2021/03/29 05:10:22;;;;;;;8.38;3.97;;;11.80;96.70;;;;;;5079981;28;20051;-78
2021/03/29 05:12:54;;;;;;;9.35;4.40;;;11.80;96.70;;;;;;5069915;28;20060;-78
2021/03/29 05:15:21;;;;;;;12.38;4.63;;;11.70;96.70;;;;;;5071325;28;20032;-78
2021/03/29 05:17:49;;;;;;;7.50;4.47;;;11.80;96.70;;;;;;5077837;28;20040;-79
2021/03/29 05:20:16;;;;;;;9.68;6.07;;;11.80;96.70;;;;;;5072505;28;20036;-79
2021/03/29 05:22:44;;;;;;;11.00;5.85;;;11.80;96.70;;;;;;5073490;28;20041;-79
2021/03/29 05:25:13;;;;;;;10.20;5.30;;;11.90;96.70;;;;;;5061600;28;20085;-78
2021/03/29 05:27:40;;;;;;;10.05;5.82;;;11.90;96.70;;;;;;5075763;28;20044;-79
2021/03/29 05:30:09;;;;;;;12.30;5.68;;;12.00;96.70;;;;;;5077988;28;20036;-79
2021/03/29 05:32:36;;;;;;;9.68;5.82;;;11.90;96.70;;;;;;5071505;28;20079;-78
2021/03/29 05:35:04;;;;;;;10.93;5.70;;;11.80;96.70;;;;;;5064068;28;20124;-78
2021/03/29 05:37:32;;;;;;;7.72;5.53;;;11.80;96.70;;;;;;5058002;28;20059;-78
2021/03/29 05:40:00;;;;;;;12.38;6.72;;;11.80;96.70;;;;;;5080611;28;20292;-78
2021/03/29 05:42:30;;;;;;;11.18;7.50;;;11.70;96.70;;;;;;5075368;28;20044;-79
2021/03/29 05:45:02;;;;;;;19.98;7.47;;;11.70;96.70;;;;;;5059985;28;20044;-78
2021/03/29 05:47:30;;;;;;;10.95;7.07;;;11.80;96.70;;;;;;5077338;28;20406;-78
2021/03/29 05:50:00;;;;;;;6.53;5.40;;;11.80;96.70;;;;;;5080772;28;20105;-79
2021/03/29 05:52:29;;;;;;;11.55;5.78;;;11.80;96.70;;;;;;5077427;28;20036;-79
2021/03/29 05:54:57;;;;;;;11.32;5.55;;;11.80;96.70;;;;;;5075310;28;20043;-78
2021/03/29 05:57:26;;;;;;;11.13;4.43;;;11.80;96.70;;;;;;5078831;28;20409;-78
2021/03/29 05:59:54;;;;;;;6.90;5.10;;;11.70;96.70;;;;;;5072649;28;20089;-79
2021/03/29 06:02:28;;;;;;;6.10;4.53;;;11.70;96.70;;;;;;5073995;28;20055;-78
2021/03/29 06:04:55;;;;;;;8.18;4.97;;;11.70;96.70;;;;;;5068504;28;20044;-78
2021/03/29 06:07:25;;;;;;;8.88;5.63;;;11.70;96.70;;;;;;5080247;28;20028;-79
2021/03/29 06:09:54;;;;;;;7.22;4.70;;;11.60;96.70;;;;;;5076439;28;20044;-79
2021/03/29 06:12:23;;;;;;;8.82;5.88;;;11.60;96.70;;;;;;5060848;28;20336;-78
2021/03/29 06:15:02;;;;;;;11.90;6.00;;;11.60;96.70;;;;;;5075384;28;20651;-78
2021/03/29 06:17:29;;;;;;;11.95;5.95;;;11.50;96.70;;;;;;5073842;28;20122;-79
2021/03/29 06:19:58;;;;;;;13.25;6.38;;;11.40;96.70;;;;;;5071233;28;20040;-78
2021/03/29 06:22:27;;;;;;;12.55;6.43;;;11.40;96.70;;;;;;5075486;28;20048;-78
2021/03/29 06:24:58;;;;;;;9.82;5.68;;;11.40;96.70;;;;;;5056914;28;20040;-78
2021/03/29 06:27:27;;;;;;;10.77;7.03;;;11.50;96.70;;;;;;5071302;28;20105;-78
2021/03/29 06:30:11;;;;;;;19.42;8.02;;;11.50;96.70;;;;;;5056683;28;20065;-79
2021/03/29 06:32:50;;;;;;;12.23;7.18;;;11.40;96.70;;;;;;5071291;28;20101;-78
2021/03/29 06:35:20;;;;;;;10.32;6.90;;;11.40;96.70;;;;;;5070063;28;20040;-78
2021/03/29 06:37:48;;;;;;;9.98;7.13;;;11.60;96.70;;;;;;5078715;28;20040;-78
2021/03/29 06:40:16;;;;;;;9.95;7.35;;;11.60;96.70;;;;;;5057154;28;20030;-79
2021/03/29 06:42:43;;;;;;;10.20;7.15;;;11.70;96.70;;;;;;5062342;28;20139;-78
2021/03/29 06:45:14;;;;;;;11.35;7.13;;;11.60;96.70;;;;;;5074830;28;20090;-78
2021/03/29 06:47:42;;;;;;;12.60;6.90;;;11.60;96.70;;;;;;5076279;28;20265;-79
2021/03/29 06:50:23;;;;;;;10.15;7.55;;;11.60;96.70;;;;;;5069336;28;20141;-77
2021/03/29 06:52:51;;;;;;;14.95;8.40;;;11.80;96.70;;;;;;5069108;28;20067;-77
2021/03/29 06:55:22;;;;;;;10.57;7.43;;;11.80;96.70;;;;;;5069760;28;20123;-77
2021/03/29 06:58:05;;;;;;;14.18;7.63;;;11.90;96.70;;;;;;5077005;28;20044;-77
2021/03/29 07:00:35;;;;;;;13.35;7.15;;;11.90;96.70;;;;;;5057167;28;20588;-77
2021/03/29 07:03:05;;;;;;;12.13;7.13;;;11.90;96.70;;;;;;5072760;28;20045;-77
2021/03/29 07:05:33;;;;;;;8.13;5.70;;;12.10;96.70;;;;;;5078251;28;20039;-77
2021/03/29 07:08:03;;;;;;;11.68;6.28;;;12.10;96.70;;;;;;5078909;28;20040;-77
2021/03/29 07:10:31;;;;;;;9.07;6.90;;;12.10;96.70;;;;;;5078155;28;20039;-78
2021/03/29 07:13:00;;;;;;;8.13;6.18;;;12.00;96.70;;;;;;5074616;28;20531;-77
2021/03/29 07:15:28;;;;;;;8.57;5.97;;;12.00;96.70;;;;;;5072039;28;20130;-77
2021/03/29 07:17:57;;;;;;;7.72;5.50;;;12.10;96.70;;;;;;5076634;28;20494;-76
2021/03/29 07:20:25;;;;;;;11.00;6.80;;;12.20;96.70;;;;;;5071516;28;20127;-77
2021/03/29 07:22:55;;;;;;;9.27;6.50;;;12.20;96.70;;;;;;5059431;28;20569;-77
2021/03/29 07:25:30;;;;;;;10.05;6.18;;;12.20;96.70;;;;;;5077702;28;20409;-77
2021/03/29 07:27:59;;;;;;;7.38;5.95;;;12.40;96.70;;;;;;5080855;28;20221;-77
2021/03/29 07:30:43;;;;;;;8.80;6.57;;;12.40;96.70;;;;;;5056931;28;20162;-77
2021/03/29 07:33:14;;;;;;;10.85;7.70;;;12.50;96.70;;;;;;5056985;28;20056;-77
2021/03/29 07:35:48;;;;;;;10.50;7.25;;;12.40;96.70;;;;;;5074970;28;20089;-77
2021/03/29 07:38:16;;;;;;;12.27;8.13;;;12.50;96.70;;;;;;5076955;28;20432;-77
2021/03/29 07:40:48;;;;;;;8.77;6.93;;;12.50;96.70;;;;;;5072360;28;20111;-77
2021/03/29 07:43:18;;;;;;;10.77;7.80;;;12.70;96.70;;;;;;5058378;28;20407;-77
2021/03/29 07:45:49;;;;;;;11.60;8.35;;;12.70;96.70;;;;;;5074241;28;20429;-78
2021/03/29 07:48:34;;;;;;;10.77;8.13;;;12.60;96.70;;;;;;5076299;28;20067;-77
2021/03/29 07:51:04;;;;;;;13.50;8.73;;;12.50;96.70;;;;;;5073127;28;20559;-77
2021/03/29 07:53:40;;;;;;;12.18;8.30;;;12.50;96.70;;;;;;5080596;28;20426;-77
2021/03/29 07:56:08;;;;;;;12.77;8.27;;;12.40;96.70;;;;;;5070043;28;20143;-77
2021/03/29 07:58:45;;;;;;;11.70;8.93;;;12.70;96.70;;;;;;5054329;28;20037;-77
2021/03/29 08:01:14;;;;;;;;;;;12.80;96.70;;;;;;5071202;28;20058;-77
2021/03/29 08:03:46;;;;;;;13.80;8.52;;;13.00;96.70;;;;;;5067241;28;20013;-77
2021/03/29 08:06:43;;;;;;;11.50;8.82;;;13.00;96.70;;;;;;5074597;28;20498;-77
2021/03/29 08:09:15;;;;;;;15.23;10.27;;;13.10;96.70;;;;;;5071874;28;20032;-77
2021/03/29 08:12:02;;;;;;;11.93;9.77;;;13.20;96.70;;;;;;5078687;28;20052;-78
2021/03/29 08:14:34;;;;;;;9.75;7.93;;;13.40;96.70;;;;;;5074222;28;20044;-77
2021/03/29 08:17:31;;;;;;;9.57;8.07;;;13.50;96.70;;;;;;5071124;28;20458;-77
2021/03/29 08:20:10;;;;;;;11.00;8.03;;;13.50;96.70;;;;;;5068846;28;20559;-77
2021/03/29 08:22:38;;;;;;;9.13;7.53;;;13.50;96.70;;;;;;5071014;28;20040;-76
2021/03/29 08:25:06;;;;;;;9.48;7.45;;;13.60;96.70;;;;;;5075154;28;20501;-77
2021/03/29 08:27:34;;;;;;;9.85;7.30;;;13.60;96.70;;;;;;5079096;28;20051;-77
2021/03/29 08:30:14;;;;;;;9.65;7.40;;;13.60;96.70;;;;;;5067664;28;20462;-80
2021/03/29 08:32:41;;;;;;;10.20;6.65;;;13.70;96.70;;;;;;5073138;28;20044;-79
2021/03/29 08:35:11;;;;;;;9.13;7.78;;;13.70;96.70;;;;;;5053841;28;20040;-77
2021/03/29 08:37:42;;;;;;;9.98;7.47;;;13.80;96.70;;;;;;5054434;28;20048;-79
2021/03/29 08:40:13;;;;;;;10.98;8.30;;;13.70;96.70;;;;;;5073968;28;20048;-78
2021/03/29 08:42:42;;;;;;;10.88;7.45;;;13.70;96.70;;;;;;5056050;28;20044;-78
2021/03/29 08:45:11;;;;;;;9.80;7.82;;;13.70;96.70;;;;;;5069577;28;20054;-78
2021/03/29 08:47:40;;;;;;;9.27;7.63;;;13.90;96.70;;;;;;5070243;28;20079;-79
2021/03/29 08:50:12;;;;;;;11.95;8.15;;;13.90;96.70;;;;;;5069753;28;20510;-80
2021/03/29 08:52:41;;;;;;;10.93;7.88;;;14.00;96.70;;;;;;5063532;28;20468;-79
2021/03/29 08:55:11;;;;;;;8.27;7.40;;;14.00;96.70;;;;;;5078435;28;20115;-80
2021/03/29 08:57:38;;;;;;;12.75;8.18;;;14.00;96.70;;;;;;5076546;28;20047;-80
2021/03/29 09:00:11;;;;;;;12.60;8.65;;;14.10;96.70;;;;;;5073566;28;20068;-76
2021/03/29 09:02:39;;;;;;;9.73;8.30;;;14.30;96.70;;;;;;5076969;28;20040;-77
2021/03/29 09:05:08;;;;;;;10.48;8.55;;;14.40;96.70;;;;;;5074020;28;20064;-76
2021/03/29 09:07:42;;;;;;;9.95;7.88;;;14.40;96.70;;;;;;5071422;28;20047;-76
2021/03/29 09:10:16;;;;;;;11.35;7.75;;;14.40;96.70;;;;;;5070817;28;20115;-76
2021/03/29 09:12:44;;;;;;;11.98;8.55;;;14.50;96.70;;;;;;5077744;28;20518;-77
2021/03/29 09:15:14;;;;;;;12.25;7.88;;;14.60;96.70;;;;;;5053719;28;20568;-76
2021/03/29 09:17:41;;;;;;;9.88;8.88;;;14.80;96.70;;;;;;5071818;28;20131;-76
2021/03/29 09:20:25;;;;;;;12.75;8.93;;;14.70;96.70;;;;;;5077866;28;20040;-76
2021/03/29 09:22:53;;;;;;;13.13;8.15;;;14.80;96.70;;;;;;5072909;28;20119;-78
2021/03/29 09:25:24;;;;;;;10.65;7.72;;;14.70;96.70;;;;;;5072396;28;20032;-79
2021/03/29 09:28:08;;;;;;;9.98;8.35;;;14.90;96.70;;;;;;5071641;28;20044;-78
2021/03/29 09:30:35;;;;;;;11.43;8.52;;;15.00;96.70;;;;;;5085942;28;20104;-78
2021/03/29 09:33:03;;;;;;;13.38;8.05;;;15.10;96.70;;;;;;5071474;28;20033;-76
2021/03/29 09:35:31;;;;;;;11.27;8.30;;;15.30;96.70;;;;;;5061760;28;20548;-78
2021/03/29 09:38:00;;;;;;;15.25;9.02;;;15.40;96.70;;;;;;5061755;28;20444;-78
2021/03/29 09:40:34;;;;;;;12.65;7.88;;;15.50;96.70;;;;;;5055702;28;20136;-81
2021/03/29 09:43:03;;;;;;;12.80;8.18;;;15.50;96.70;;;;;;5077281;28;20047;-78
2021/03/29 09:45:32;;;;;;;11.00;7.80;;;15.70;96.70;;;;;;5077363;28;20050;-77
2021/03/29 09:48:01;;;;;;;8.90;7.53;;;15.80;96.70;;;;;;5080435;28;20040;-79
2021/03/29 09:50:30;;;;;;;10.88;7.20;;;15.90;96.70;;;;;;5081446;28;20043;-78
2021/03/29 09:53:09;;;;;;;10.50;7.60;;;15.90;96.70;;;;;;5071108;28;20048;-77
2021/03/29 09:55:42;;;;;;;9.80;7.03;;;16.00;96.70;;;;;;5063693;28;20062;-80
2021/03/29 09:58:18;;;;;;;11.85;6.80;;;16.10;96.70;;;;;;5081334;28;20044;-81
2021/03/29 10:00:46;;;;;;;12.35;8.00;;;16.20;96.70;;;;;;5056470;28;20045;-81
2021/03/29 10:03:17;;;;;;;13.57;7.85;;;16.30;96.70;;;;;;5071603;28;20508;-79
2021/03/29 10:05:46;;;;;;;9.95;6.60;;;16.40;96.70;;;;;;5073247;28;20044;-80
2021/03/29 10:08:26;;;;;;;7.20;6.10;;;16.60;96.70;;;;;;5074892;28;20119;-79
2021/03/29 10:11:03;;;;;;;10.52;6.30;;;16.70;96.70;;;;;;5057530;28;20609;-77
2021/03/29 10:13:34;;;;;;;9.18;6.53;;;16.80;96.70;;;;;;5071357;28;20052;-79
2021/03/29 10:16:18;;;;;;;10.73;6.75;;;16.80;96.70;;;;;;5071870;28;20040;-77
2021/03/29 10:19:09;;;;;;;8.38;5.90;;;16.90;96.70;;;;;;5058318;28;20048;-79
2021/03/29 10:22:00;;;;;;;10.00;6.13;;;17.10;96.70;;;;;;5058809;28;20125;-82
2021/03/29 10:24:28;;;;;;;11.50;6.45;;;17.20;96.70;;;;;;5070247;28;20413;-78
2021/03/29 10:26:58;;;;;;;8.30;5.45;;;17.20;96.70;;;;;;5052386;28;20394;-79
2021/03/29 10:29:35;;;;;;;11.88;5.85;;;17.40;95.90;;;;;;5074599;28;20046;-81
2021/03/29 10:32:05;;;;;;;10.77;6.38;;;17.50;96.00;;;;;;5072742;28;20040;-77
2021/03/29 10:34:34;;;;;;;7.63;5.03;;;17.60;95.90;;;;;;5055108;28;20076;-79
2021/03/29 10:37:02;;;;;;;10.65;6.25;;;17.90;95.70;;;;;;5068955;28;20503;-76
2021/03/29 10:39:30;;;;;;;10.48;5.80;;;18.20;95.10;;;;;;5075027;28;20593;-76
2021/03/29 10:41:57;;;;;;;10.57;6.20;;;18.30;94.80;;;;;;5070830;28;20397;-75
2021/03/29 10:44:25;;;;;;;10.60;6.07;;;18.50;94.50;;;;;;5067572;28;20048;-73
2021/03/29 10:46:52;;;;;;;10.05;5.72;;;18.60;94.10;;;;;;5072911;28;20047;-76
2021/03/29 10:49:20;;;;;;;10.38;6.15;;;18.80;94.10;;;;;;5074870;28;20036;-75
2021/03/29 10:51:47;;;;;;;10.38;5.75;;;18.90;93.90;;;;;;5075964;28;20032;-75
2021/03/29 10:54:14;;;;;;;10.48;6.25;;;18.90;93.50;;;;;;5054156;28;20485;-75
2021/03/29 10:56:43;;;;;;;8.52;6.45;;;19.00;93.80;;;;;;5056751;28;20032;-75
2021/03/29 10:59:10;;;;;;;9.75;5.57;;;19.00;93.50;;;;;;5059195;28;20095;-76
2021/03/29 11:01:37;;;;;;;12.25;6.03;;;19.00;93.30;;;;;;5069829;28;20035;-76
2021/03/29 11:04:05;;;;;;;10.35;6.78;;;19.00;93.00;;;;;;5070883;28;20141;-76
2021/03/29 11:06:32;;;;;;;10.55;5.97;;;18.90;92.40;;;;;;5073785;28;20043;-75
2021/03/29 11:09:00;;;;;;;9.75;5.85;;;19.00;91.80;;;;;;5072862;28;20494;-75
2021/03/29 11:11:28;;;;;;;8.95;4.82;;;19.10;91.30;;;;;;5077358;28;20076;-75
2021/03/29 11:13:56;;;;;;;10.40;5.38;;;19.30;90.90;;;;;;5078125;28;20036;-76
2021/03/29 11:16:24;;;;;;;6.80;4.95;;;19.50;90.20;;;;;;5067169;28;20070;-76
2021/03/29 11:18:52;;;;;;;8.10;4.75;;;19.60;90.10;;;;;;5067046;28;20051;-76
2021/03/29 11:21:20;;;;;;;9.20;5.30;;;19.60;89.60;;;;;;5072476;28;20039;-76
2021/03/29 11:23:47;;;;;;;7.28;4.50;;;19.60;90.30;;;;;;5077429;28;20138;-76
2021/03/29 11:26:15;;;;;;;4.47;3.38;;;19.80;88.80;;;;;;5060023;28;20040;-76
2021/03/29 11:28:42;;;;;;;4.80;3.85;;;20.00;86.80;;;;;;5073088;28;20074;-77
2021/03/29 11:31:11;;;;;;;5.53;3.50;;;20.10;86.80;;;;;;5052511;28;20528;-76
2021/03/29 11:33:38;;;;;;;5.70;3.50;;;20.20;83.80;;;;;;5068363;28;20102;-76
2021/03/29 11:36:06;;;;;;;5.93;3.20;;;20.30;82.10;;;;;;5050402;28;20075;-76
2021/03/29 11:38:37;;;;;;;4.72;3.50;;;20.30;81.90;;;;;;5065518;28;20037;-79
2021/03/29 11:41:06;;;;;;;3.92;2.38;;;20.30;81.10;;;;;;5066198;28;20044;-77
2021/03/29 11:43:33;;;;;;;4.85;2.20;;;20.40;78.50;;;;;;5068038;28;20040;-78
2021/03/29 11:46:01;;;;;;;3.83;2.85;;;20.80;76.60;;;;;;5071974;28;20044;-79
2021/03/29 11:48:36;;;;;;;4.85;2.25;;;21.00;77.90;;;;;;5061675;28;20153;-77
2021/03/29 11:51:04;;;;;;;4.25;2.13;;;21.00;76.20;;;;;;5075485;28;20385;-78
2021/03/29 11:53:32;;;;;;;3.83;2.03;;;21.00;76.80;;;;;;5058904;28;20040;-77
2021/03/29 11:55:59;;;;;;;3.05;2.13;;;21.20;74.90;;;;;;5067592;28;20073;-76
2021/03/29 11:58:26;;;;;;;6.88;2.30;;;21.40;73.80;;;;;;5077410;28;20613;-76
2021/03/29 12:00:59;;;;;;;2.35;1.90;;;21.50;74.10;;;;;;5072072;28;20124;-77
2021/03/29 12:03:40;;;;;;;5.05;2.25;;;21.60;73.90;;;;;;5057108;28;20085;-76
2021/03/29 12:06:13;;;;;;;2.35;2.05;;;21.60;72.90;;;;;;5068202;28;20078;-78
2021/03/29 12:13:46;;;;;;;3.15;1.90;;;22.20;68.80;;;;;;5072186;28;20044;-78
2021/03/29 12:16:15;;;;;;;2.17;1.85;;;22.20;69.40;;;;;;5073953;28;20040;-80
2021/03/29 12:18:47;;;;;;;4.13;2.22;;;22.20;68.50;;;;;;5068310;28;20613;-79
2021/03/29 12:21:24;;;;;;;4.65;2.45;;;22.40;68.10;;;;;;5075387;28;20047;-77
2021/03/29 12:23:57;;;;;;;3.85;2.08;;;22.50;67.30;;;;;;5047924;28;20060;-79
2021/03/29 12:26:25;;;;;;;3.22;1.83;;;22.60;69.40;;;;;;5056972;28;20474;-78
2021/03/29 12:28:54;;;;;;;2.80;2.05;;;22.50;66.80;;;;;;5034081;28;20235;-78
2021/03/29 12:31:22;;;;;;;3.45;1.88;;;22.60;66.30;;;;;;5056740;28;20409;-77
2021/03/29 12:33:50;;;;;;;4.28;2.28;;;22.70;66.80;;;;;;5037116;28;20036;-77
2021/03/29 12:36:20;;;;;;;1.88;1.75;;;22.80;67.70;;;;;;5057418;28;20045;-77
2021/03/29 12:38:56;;;;;;;3.35;2.03;;;22.90;65.70;;;;;;5057347;28;20033;-78
2021/03/29 12:41:24;;;;;;;3.47;1.90;;;23.00;66.50;;;;;;5051940;28;20328;-78
2021/03/29 12:46:28;;;;;;;3.65;2.47;;;23.20;67.60;;;;;;5056839;28;20785;-79
2021/03/29 12:48:55;;;;;;;2.65;2.10;;;23.10;67.00;;;;;;5048415;28;20037;-80
2021/03/29 12:51:23;;;;;;;3.72;2.03;;;23.10;65.70;;;;;;5056520;28;20074;-78
2021/03/29 12:53:51;;;;;;;2.78;1.88;;;23.20;65.60;;;;;;5055304;28;20402;-77
2021/03/29 12:56:18;;;;;;;4.78;2.30;;;23.20;65.00;;;;;;5053079;28;20433;-79
2021/03/29 12:58:45;;;;;;;4.00;2.30;;;23.30;66.20;;;;;;5040866;28;20053;-79
2021/03/29 13:01:13;;;;;;;2.30;2.03;;;23.20;66.40;;;;;;5050830;28;20143;-78
2021/03/29 13:03:45;;;;;;;3.25;1.83;;;23.10;65.40;;;;;;5048582;28;20410;-80